Avisos AEMET Campiña SevillanaSin Avisos      + INFO

Informes METAR cercanos

 

LEZL - Sevilla (civ/Mil, Spain
Distancia de la estación: O 16km
Actualización: 19/06/2021 17:00
Parcialmente nuboso
Parcialmente nuboso
 Viento del SO
Viento: SO 15 km/h, Racha: 33 km/h
Temperatura: 25°C
Rocío: 11°C
Humedad: 42%
Barómetro: 1015 hPa
Nubes: Parcialmente nuboso
Visibilidad: 10 km
Detalles nubes: Parcialmente nuboso 1463 m
2021/06/19 15:00 LEZL 191500Z 23008G18KT 180V320 9999 SCT048 25/11 Q1015 NOSIG
LEMO - Moron (sp-Usafb), Spain
Distancia de la estación: SSE 27km
Actualización: 19/06/2021 17:00
Poco Nuboso
Poco Nuboso
 Viento del varies
Viento: varies 17 km/h
Temperatura: 25°C
Rocío: 10°C
Humedad: 39%
Barómetro: 1015 hPa
Nubes: Poco Nuboso
Visibilidad: 10 km
Detalles nubes: Poco Nuboso 1524 m
2021/06/19 15:00 LEMO 191500Z VRB09KT 9999 FEW050 25/10 Q1015 NOSIG